sensor_id;sensor_type;location;lat;lon;timestamp;pressure;altitude;pressure_sealevel;temperature;humidity
48790;BME280;41718;51.980;5.734;2022-11-09T00:01:20;100307.69;;;12.44;100.00
48790;BME280;41718;51.980;5.734;2022-11-09T00:06:22;100309.44;;;12.48;100.00
48790;BME280;41718;51.980;5.734;2022-11-09T00:11:24;100314.59;;;12.57;100.00
48790;BME280;41718;51.980;5.734;2022-11-09T00:16:25;100315.47;;;12.52;100.00
48790;BME280;41718;51.980;5.734;2022-11-09T00:21:27;100319.78;;;12.45;100.00
48790;BME280;41718;51.980;5.734;2022-11-09T00:26:28;100316.34;;;12.49;100.00
48790;BME280;41718;51.980;5.734;2022-11-09T00:31:30;100324.13;;;12.51;100.00
48790;BME280;41718;51.980;5.734;2022-11-09T00:36:31;100325.84;;;12.50;100.00
48790;BME280;41718;51.980;5.734;2022-11-09T00:41:33;100320.66;;;12.49;100.00
48790;BME280;41718;51.980;5.734;2022-11-09T00:46:34;100337.09;;;12.38;100.00
48790;BME280;41718;51.980;5.734;2022-11-09T00:51:36;100324.09;;;12.47;100.00
48790;BME280;41718;51.980;5.734;2022-11-09T00:56:37;100324.94;;;12.59;100.00
48790;BME280;41718;51.980;5.734;2022-11-09T01:01:39;100318.03;;;12.56;100.00
48790;BME280;41718;51.980;5.734;2022-11-09T01:06:40;100322.34;;;12.71;100.00
48790;BME280;41718;51.980;5.734;2022-11-09T01:11:42;100325.81;;;12.64;100.00
48790;BME280;41718;51.980;5.734;2022-11-09T01:16:43;100332.75;;;12.51;100.00
48790;BME280;41718;51.980;5.734;2022-11-09T01:21:45;100320.66;;;12.49;100.00
48790;BME280;41718;51.980;5.734;2022-11-09T01:26:46;100341.41;;;12.44;100.00
48790;BME280;41718;51.980;5.734;2022-11-09T01:31:48;100337.97;;;12.40;100.00
48790;BME280;41718;51.980;5.734;2022-11-09T01:36:50;100344.88;;;12.34;100.00
48790;BME280;41718;51.980;5.734;2022-11-09T01:41:54;100341.41;;;12.24;100.00
48790;BME280;41718;51.980;5.734;2022-11-09T01:47:06;100343.16;;;12.16;100.00
48790;BME280;41718;51.980;5.734;2022-11-09T01:52:20;100337.97;;;12.04;100.00
48790;BME280;41718;51.980;5.734;2022-11-09T01:57:38;100335.38;;;11.88;100.00
48790;BME280;41718;51.980;5.734;2022-11-09T02:02:44;100342.28;;;11.82;100.00
48790;BME280;41718;51.980;5.734;2022-11-09T02:07:48;100350.84;;;11.79;100.00
48790;BME280;41718;51.980;5.734;2022-11-09T02:12:50;100348.31;;;11.90;100.00
48790;BME280;41718;51.980;5.734;2022-11-09T02:17:54;100332.75;;;12.02;100.00
48790;BME280;41718;51.980;5.734;2022-11-09T02:22:56;100345.75;;;12.20;100.00
48790;BME280;41718;51.980;5.734;2022-11-09T02:27:58;100337.97;;;12.31;100.00
48790;BME280;41718;51.980;5.734;2022-11-09T02:32:59;100308.56;;;12.25;100.00
48790;BME280;41718;51.980;5.734;2022-11-09T02:38:01;100334.53;;;12.26;100.00
48790;BME280;41718;51.980;5.734;2022-11-09T02:43:04;100343.16;;;12.20;100.00
48790;BME280;41718;51.980;5.734;2022-11-09T02:48:06;100344.88;;;12.18;100.00
48790;BME280;41718;51.980;5.734;2022-11-09T02:53:08;100350.06;;;12.11;100.00
48790;BME280;41718;51.980;5.734;2022-11-09T02:58:09;100350.09;;;12.09;100.00
48790;BME280;41718;51.980;5.734;2022-11-09T03:03:11;100342.28;;;12.08;100.00
48790;BME280;41718;51.980;5.734;2022-11-09T03:08:12;100347.47;;;12.05;100.00
48790;BME280;41718;51.980;5.734;2022-11-09T03:13:14;100355.25;;;12.09;100.00
48790;BME280;41718;51.980;5.734;2022-11-09T03:18:15;100338.84;;;12.16;100.00
48790;BME280;41718;51.980;5.734;2022-11-09T03:23:17;100329.31;;;12.17;100.00
48790;BME280;41718;51.980;5.734;2022-11-09T03:28:19;100344.00;;;12.12;100.00
48790;BME280;41718;51.980;5.734;2022-11-09T03:33:21;100350.94;;;12.07;100.00
48790;BME280;41718;51.980;5.734;2022-11-09T03:38:23;100364.72;;;11.90;100.00
48790;BME280;41718;51.980;5.734;2022-11-09T03:43:24;100370.78;;;11.83;100.00
48790;BME280;41718;51.980;5.734;2022-11-09T03:48:26;100376.78;;;11.76;100.00
48790;BME280;41718;51.980;5.734;2022-11-09T03:53:27;100382.78;;;11.61;100.00
48790;BME280;41718;51.980;5.734;2022-11-09T03:58:28;100394.91;;;11.78;100.00
48790;BME280;41718;51.980;5.734;2022-11-09T04:03:30;100391.47;;;11.74;100.00
48790;BME280;41718;51.980;5.734;2022-11-09T04:08:31;100392.31;;;11.68;100.00
48790;BME280;41718;51.980;5.734;2022-11-09T04:13:34;100395.75;;;11.74;100.00
48790;BME280;41718;51.980;5.734;2022-11-09T04:18:35;100399.25;;;11.74;100.00
48790;BME280;41718;51.980;5.734;2022-11-09T04:23:37;100400.06;;;11.65;100.00
48790;BME280;41718;51.980;5.734;2022-11-09T04:28:38;100406.13;;;11.63;100.00
48790;BME280;41718;51.980;5.734;2022-11-09T04:33:40;100416.47;;;11.66;100.00
48790;BME280;41718;51.980;5.734;2022-11-09T04:38:41;100419.91;;;11.60;100.00
48790;BME280;41718;51.980;5.734;2022-11-09T04:43:43;100413.81;;;11.48;100.00
48790;BME280;41718;51.980;5.734;2022-11-09T04:48:44;100419.00;;;11.49;100.00
48790;BME280;41718;51.980;5.734;2022-11-09T04:53:46;100422.47;;;11.48;100.00
48790;BME280;41718;51.980;5.734;2022-11-09T04:58:47;100421.56;;;11.43;100.00
48790;BME280;41718;51.980;5.734;2022-11-09T05:03:49;100426.78;;;11.46;100.00
48790;BME280;41718;51.980;5.734;2022-11-09T05:08:52;100424.13;;;11.40;100.00
48790;BME280;41718;51.980;5.734;2022-11-09T05:13:53;100424.97;;;11.30;100.00
48790;BME280;41718;51.980;5.734;2022-11-09T05:18:55;100437.03;;;11.23;100.00
48790;BME280;41718;51.980;5.734;2022-11-09T05:23:56;100426.59;;;11.17;100.00
48790;BME280;41718;51.980;5.734;2022-11-09T05:29:03;100421.56;;;11.41;100.00
48790;BME280;41718;51.980;5.734;2022-11-09T05:34:06;100423.25;;;11.30;100.00
48790;BME280;41718;51.980;5.734;2022-11-09T05:39:08;100425.78;;;11.23;100.00
48790;BME280;41718;51.980;5.734;2022-11-09T05:44:09;100426.56;;;11.06;100.00
48790;BME280;41718;51.980;5.734;2022-11-09T05:49:10;100421.34;;;10.96;100.00
48790;BME280;41718;51.980;5.734;2022-11-09T05:54:13;100425.59;;;10.91;100.00
48790;BME280;41718;51.980;5.734;2022-11-09T05:59:14;100432.50;;;10.90;100.00
48790;BME280;41718;51.980;5.734;2022-11-09T06:04:16;100432.44;;;10.79;100.00
48790;BME280;41718;51.980;5.734;2022-11-09T06:09:17;100437.56;;;10.76;100.00
48790;BME280;41718;51.980;5.734;2022-11-09T06:14:19;100426.41;;;10.80;100.00
48790;BME280;41718;51.980;5.734;2022-11-09T06:19:20;100429.81;;;10.76;100.00
48790;BME280;41718;51.980;5.734;2022-11-09T06:24:21;100436.72;;;10.77;100.00
48790;BME280;41718;51.980;5.734;2022-11-09T06:29:23;100441.84;;;10.71;100.00
48790;BME280;41718;51.980;5.734;2022-11-09T06:34:24;100438.47;;;10.78;100.00
48790;BME280;41718;51.980;5.734;2022-11-09T06:39:26;100453.00;;;10.66;100.00
48790;BME280;41718;51.980;5.734;2022-11-09T06:44:32;100452.91;;;10.55;100.00
48790;BME280;41718;51.980;5.734;2022-11-09T06:49:35;100458.03;;;10.49;100.00
48790;BME280;41718;51.980;5.734;2022-11-09T06:54:38;100458.19;;;10.66;100.00
48790;BME280;41718;51.980;5.734;2022-11-09T06:59:39;100461.53;;;10.52;100.00
48790;BME280;41718;51.980;5.734;2022-11-09T07:04:41;100458.03;;;10.46;100.00
48790;BME280;41718;51.980;5.734;2022-11-09T07:09:42;100464.13;;;10.52;100.00
48790;BME280;41718;51.980;5.734;2022-11-09T07:14:43;100454.69;;;10.60;100.00
48790;BME280;41718;51.980;5.734;2022-11-09T07:19:45;100460.66;;;10.52;100.00
48790;BME280;41718;51.980;5.734;2022-11-09T07:24:47;100467.56;;;10.53;100.00
48790;BME280;41718;51.980;5.734;2022-11-09T07:29:48;100465.94;;;10.66;100.00
48790;BME280;41718;51.980;5.734;2022-11-09T07:34:50;100467.59;;;10.56;100.00
48790;BME280;41718;51.980;5.734;2022-11-09T07:39:51;100478.03;;;10.67;100.00
48790;BME280;41718;51.980;5.734;2022-11-09T07:44:52;100465.25;;;10.86;100.00
48790;BME280;41718;51.980;5.734;2022-11-09T07:49:54;100475.56;;;10.79;100.00
48790;BME280;41718;51.980;5.734;2022-11-09T07:54:55;100479.13;;;10.96;100.00
48790;BME280;41718;51.980;5.734;2022-11-09T07:59:57;100494.75;;;11.08;100.00
48790;BME280;41718;51.980;5.734;2022-11-09T08:04:59;100486.94;;;11.04;100.00
48790;BME280;41718;51.980;5.734;2022-11-09T08:10:00;100495.59;;;11.07;100.00
48790;BME280;41718;51.980;5.734;2022-11-09T08:15:03;100498.31;;;11.27;100.00
48790;BME280;41718;51.980;5.734;2022-11-09T08:20:05;100500.94;;;11.32;100.00
48790;BME280;41718;51.980;5.734;2022-11-09T08:25:07;100498.38;;;11.35;100.00
48790;BME280;41718;51.980;5.734;2022-11-09T08:30:14;100509.66;;;11.48;100.00
48790;BME280;41718;51.980;5.734;2022-11-09T08:35:19;100511.44;;;11.52;100.00
48790;BME280;41718;51.980;5.734;2022-11-09T08:40:23;100523.47;;;11.44;100.00
48790;BME280;41718;51.980;5.734;2022-11-09T08:45:25;100525.22;;;11.48;100.00
48790;BME280;41718;51.980;5.734;2022-11-09T08:50:28;100527.06;;;11.73;100.00
48790;BME280;41718;51.980;5.734;2022-11-09T08:55:30;100523.72;;;11.91;100.00
48790;BME280;41718;51.980;5.734;2022-11-09T09:00:31;100532.41;;;12.02;100.00
48790;BME280;41718;51.980;5.734;2022-11-09T09:05:34;100534.09;;;11.91;100.00
48790;BME280;41718;51.980;5.734;2022-11-09T09:10:35;100536.75;;;12.05;100.00
48790;BME280;41718;51.980;5.734;2022-11-09T09:15:37;100540.19;;;12.02;100.00
48790;BME280;41718;51.980;5.734;2022-11-09T09:20:38;100541.94;;;12.08;100.00
48790;BME280;41718;51.980;5.734;2022-11-09T09:25:40;100542.84;;;12.24;100.00
48790;BME280;41718;51.980;5.734;2022-11-09T09:30:42;100534.22;;;12.29;100.00
48790;BME280;41718;51.980;5.734;2022-11-09T09:35:43;100541.13;;;12.30;100.00
48790;BME280;41718;51.980;5.734;2022-11-09T09:40:57;100552.38;;;12.29;100.00
48790;BME280;41718;51.980;5.734;2022-11-09T09:46:01;100557.63;;;12.46;100.00
48790;BME280;41718;51.980;5.734;2022-11-09T09:51:11;100566.28;;;12.56;100.00
48790;BME280;41718;51.980;5.734;2022-11-09T09:56:24;100563.69;;;12.45;100.00
48790;BME280;41718;51.980;5.734;2022-11-09T10:01:35;100572.31;;;12.47;100.00
48790;BME280;41718;51.980;5.734;2022-11-09T10:12:08;100577.56;;;12.74;100.00
48790;BME280;41718;51.980;5.734;2022-11-09T10:17:37;100581.91;;;12.79;100.00
48790;BME280;41718;51.980;5.734;2022-11-09T10:22:51;100586.22;;;12.73;100.00
48790;BME280;41718;51.980;5.734;2022-11-09T10:28:02;100575.84;;;12.98;100.00
48790;BME280;41718;51.980;5.734;2022-11-09T10:38:14;100579.38;;;13.24;100.00
48790;BME280;41718;51.980;5.734;2022-11-09T10:43:18;100583.69;;;13.16;100.00
48790;BME280;41718;51.980;5.734;2022-11-09T10:48:33;100590.59;;;13.10;100.00
48790;BME280;41718;51.980;5.734;2022-11-09T10:53:34;100600.13;;;12.94;100.00
48790;BME280;41718;51.980;5.734;2022-11-09T10:58:38;100605.28;;;12.92;100.00
48790;BME280;41718;51.980;5.734;2022-11-09T11:03:41;100597.53;;;12.94;100.00
48790;BME280;41718;51.980;5.734;2022-11-09T11:08:46;100601.84;;;13.07;100.00
48790;BME280;41718;51.980;5.734;2022-11-09T11:13:49;100594.94;;;13.12;100.00
48790;BME280;41718;51.980;5.734;2022-11-09T11:18:52;100585.38;;;13.65;100.00
48790;BME280;41718;51.980;5.734;2022-11-09T11:24:13;100595.81;;;13.26;100.00
48790;BME280;41718;51.980;5.734;2022-11-09T11:29:28;100590.59;;;13.57;100.00
48790;BME280;41718;51.980;5.734;2022-11-09T11:34:32;100600.13;;;13.52;100.00
48790;BME280;41718;51.980;5.734;2022-11-09T11:40:00;100592.34;;;13.40;100.00
48790;BME280;41718;51.980;5.734;2022-11-09T11:45:40;100594.06;;;13.64;100.00
48790;BME280;41718;51.980;5.734;2022-11-09T11:56:25;100599.28;;;13.47;100.00
48790;BME280;41718;51.980;5.734;2022-11-09T12:07:08;100594.06;;;13.64;100.00
48790;BME280;41718;51.980;5.734;2022-11-09T12:12:20;100588.00;;;13.54;100.00
48790;BME280;41718;51.980;5.734;2022-11-09T12:22:45;100589.75;;;13.24;100.00
48790;BME280;41718;51.980;5.734;2022-11-09T12:28:02;100609.66;;;13.18;100.00
48790;BME280;41718;51.980;5.734;2022-11-09T12:33:14;100613.13;;;13.31;100.00
48790;BME280;41718;51.980;5.734;2022-11-09T12:38:27;100616.56;;;13.20;100.00
48790;BME280;41718;51.980;5.734;2022-11-09T12:43:32;100617.44;;;13.18;100.00
48790;BME280;41718;51.980;5.734;2022-11-09T12:48:35;100609.69;;;13.45;100.00
48790;BME280;41718;51.980;5.734;2022-11-09T12:53:37;100627.84;;;13.42;100.00
48790;BME280;41718;51.980;5.734;2022-11-09T12:58:39;100610.53;;;13.40;100.00
48790;BME280;41718;51.980;5.734;2022-11-09T13:03:53;100604.47;;;13.47;100.00
48790;BME280;41718;51.980;5.734;2022-11-09T13:09:03;100610.53;;;13.52;100.00
48790;BME280;41718;51.980;5.734;2022-11-09T13:14:38;100628.69;;;13.66;100.00
48790;BME280;41718;51.980;5.734;2022-11-09T13:24:52;100630.44;;;13.38;100.00
48790;BME280;41718;51.980;5.734;2022-11-09T13:29:54;100651.25;;;13.44;100.00
48790;BME280;41718;51.980;5.734;2022-11-09T13:35:01;100641.75;;;13.34;100.00
48790;BME280;41718;51.980;5.734;2022-11-09T13:50:57;100669.44;;;13.25;100.00
48790;BME280;41718;51.980;5.734;2022-11-09T13:56:12;100681.53;;;13.26;100.00
48790;BME280;41718;51.980;5.734;2022-11-09T14:01:31;100670.31;;;13.35;100.00
48790;BME280;41718;51.980;5.734;2022-11-09T14:06:38;100668.56;;;13.26;100.00
48790;BME280;41718;51.980;5.734;2022-11-09T14:22:18;100703.16;;;13.16;100.00
48790;BME280;41718;51.980;5.734;2022-11-09T14:27:21;100697.09;;;13.14;100.00
48790;BME280;41718;51.980;5.734;2022-11-09T14:37:30;100713.50;;;12.96;100.00
48790;BME280;41718;51.980;5.734;2022-11-09T14:42:31;100729.94;;;12.95;100.00
48790;BME280;41718;51.980;5.734;2022-11-09T14:47:35;100729.94;;;12.89;100.00
48790;BME280;41718;51.980;5.734;2022-11-09T14:52:38;100737.72;;;12.88;100.00
48790;BME280;41718;51.980;5.734;2022-11-09T14:57:40;100738.53;;;12.78;100.00
48790;BME280;41718;51.980;5.734;2022-11-09T15:02:42;100749.78;;;12.77;100.00
48790;BME280;41718;51.980;5.734;2022-11-09T15:07:45;100753.22;;;12.72;100.00
48790;BME280;41718;51.980;5.734;2022-11-09T15:12:50;100760.97;;;12.69;100.00
48790;BME280;41718;51.980;5.734;2022-11-09T15:17:52;100752.34;;;12.67;100.00
48790;BME280;41718;51.980;5.734;2022-11-09T15:22:59;100762.72;;;12.66;100.00
48790;BME280;41718;51.980;5.734;2022-11-09T15:28:17;100762.66;;;12.58;100.00
48790;BME280;41718;51.980;5.734;2022-11-09T15:33:25;100767.84;;;12.57;100.00
48790;BME280;41718;51.980;5.734;2022-11-09T15:38:40;100787.72;;;12.52;100.00
48790;BME280;41718;51.980;5.734;2022-11-09T15:43:42;100785.94;;;12.46;100.00
48790;BME280;41718;51.980;5.734;2022-11-09T15:48:44;100795.41;;;12.38;100.00
48790;BME280;41718;51.980;5.734;2022-11-09T15:53:46;100805.72;;;12.30;100.00
48790;BME280;41718;51.980;5.734;2022-11-09T15:58:48;100810.78;;;12.12;100.00
48790;BME280;41718;51.980;5.734;2022-11-09T16:03:50;100822.88;;;12.10;100.00
48790;BME280;41718;51.980;5.734;2022-11-09T16:08:51;100828.06;;;12.13;100.00
48790;BME280;41718;51.980;5.734;2022-11-09T16:13:53;100834.97;;;12.09;100.00
48790;BME280;41718;51.980;5.734;2022-11-09T16:18:56;100840.22;;;12.14;100.00
48790;BME280;41718;51.980;5.734;2022-11-09T16:23:58;100843.66;;;12.14;100.00
48790;BME280;41718;51.980;5.734;2022-11-09T16:29:00;100852.22;;;12.04;100.00
48790;BME280;41718;51.980;5.734;2022-11-09T16:34:01;100889.22;;;11.91;100.00
48790;BME280;41718;51.980;5.734;2022-11-09T16:39:06;100896.53;;;11.48;100.00
48790;BME280;41718;51.980;5.734;2022-11-09T16:44:11;100911.06;;;11.35;100.00
48790;BME280;41718;51.980;5.734;2022-11-09T16:49:13;100914.38;;;11.24;100.00
48790;BME280;41718;51.980;5.734;2022-11-09T16:54:15;100909.94;;;11.17;100.00
48790;BME280;41718;51.980;5.734;2022-11-09T16:59:20;100911.66;;;11.16;100.00
48790;BME280;41718;51.980;5.734;2022-11-09T17:04:23;100921.13;;;11.12;100.00
48790;BME280;41718;51.980;5.734;2022-11-09T17:09:26;100939.94;;;11.01;100.00
48790;BME280;41718;51.980;5.734;2022-11-09T17:14:28;100936.44;;;11.00;100.00
48790;BME280;41718;51.980;5.734;2022-11-09T17:19:31;100940.19;;;11.19;100.00
48790;BME280;41718;51.980;5.734;2022-11-09T17:24:33;100960.03;;;11.19;100.00
48790;BME280;41718;51.980;5.734;2022-11-09T17:29:35;100972.91;;;11.12;100.00
48790;BME280;41718;51.980;5.734;2022-11-09T17:34:38;100972.06;;;11.15;100.00
48790;BME280;41718;51.980;5.734;2022-11-09T17:39:39;100973.88;;;11.21;100.00
48790;BME280;41718;51.980;5.734;2022-11-09T17:44:41;100986.88;;;11.25;100.00
48790;BME280;41718;51.980;5.734;2022-11-09T17:49:42;100995.59;;;11.32;100.00
48790;BME280;41718;51.980;5.734;2022-11-09T17:54:44;101012.94;;;11.36;100.00
48790;BME280;41718;51.980;5.734;2022-11-09T17:59:45;101020.63;;;11.30;100.00
48790;BME280;41718;51.980;5.734;2022-11-09T18:04:47;101026.59;;;11.24;100.00
48790;BME280;41718;51.980;5.734;2022-11-09T18:09:48;101038.50;;;11.13;100.00
48790;BME280;41718;51.980;5.734;2022-11-09T18:14:51;101046.13;;;11.05;100.00
48790;BME280;41718;51.980;5.734;2022-11-09T18:19:52;101051.22;;;10.99;100.00
48790;BME280;41718;51.980;5.734;2022-11-09T18:24:54;101053.97;;;11.08;100.00
48790;BME280;41718;51.980;5.734;2022-11-09T18:29:56;101065.09;;;11.03;100.00
48790;BME280;41718;51.980;5.734;2022-11-09T18:34:58;101066.78;;;11.01;100.00
48790;BME280;41718;51.980;5.734;2022-11-09T18:39:59;101075.47;;;11.06;100.00
48790;BME280;41718;51.980;5.734;2022-11-09T18:45:01;101083.75;;;10.83;100.00
48790;BME280;41718;51.980;5.734;2022-11-09T18:50:03;101082.16;;;10.93;100.00
48790;BME280;41718;51.980;5.734;2022-11-09T18:55:04;101090.56;;;10.78;100.00
48790;BME280;41718;51.980;5.734;2022-11-09T19:00:07;101104.28;;;10.74;100.00
48790;BME280;41718;51.980;5.734;2022-11-09T19:05:08;101108.50;;;10.71;100.00
48790;BME280;41718;51.980;5.734;2022-11-09T19:10:11;101115.28;;;10.64;100.00
48790;BME280;41718;51.980;5.734;2022-11-09T19:15:12;101125.44;;;10.53;100.00
48790;BME280;41718;51.980;5.734;2022-11-09T19:20:15;101127.88;;;10.46;100.00
48790;BME280;41718;51.980;5.734;2022-11-09T19:25:18;101131.44;;;10.51;100.00
48790;BME280;41718;51.980;5.734;2022-11-09T19:30:19;101142.53;;;10.45;100.00
48790;BME280;41718;51.980;5.734;2022-11-09T19:35:25;101144.19;;;10.43;100.00
48790;BME280;41718;51.980;5.734;2022-11-09T19:40:34;101151.75;;;10.32;100.00
48790;BME280;41718;51.980;5.734;2022-11-09T19:45:40;101161.19;;;10.30;100.00
48790;BME280;41718;51.980;5.734;2022-11-09T19:50:47;101168.81;;;10.24;100.00
48790;BME280;41718;51.980;5.734;2022-11-09T19:55:49;101174.72;;;10.20;100.00
48790;BME280;41718;51.980;5.734;2022-11-09T20:01:00;101191.22;;;10.25;100.00
48790;BME280;41718;51.980;5.734;2022-11-09T20:06:04;101199.13;;;10.31;100.00
48790;BME280;41718;51.980;5.734;2022-11-09T20:11:08;101204.00;;;10.19;100.00
48790;BME280;41718;51.980;5.734;2022-11-09T20:16:09;101215.78;;;10.06;100.00
48790;BME280;41718;51.980;5.734;2022-11-09T20:21:11;101214.88;;;10.04;100.00
48790;BME280;41718;51.980;5.734;2022-11-09T20:26:12;101218.06;;;9.93;100.00
48790;BME280;41718;51.980;5.734;2022-11-09T20:31:16;101212.69;;;9.85;100.00
48790;BME280;41718;51.980;5.734;2022-11-09T20:36:17;101225.28;;;9.71;100.00
48790;BME280;41718;51.980;5.734;2022-11-09T20:41:20;101226.06;;;9.67;100.00
48790;BME280;41718;51.980;5.734;2022-11-09T20:46:26;101238.78;;;9.60;100.00
48790;BME280;41718;51.980;5.734;2022-11-09T20:51:36;101242.81;;;9.48;100.00
48790;BME280;41718;51.980;5.734;2022-11-09T20:56:38;101249.63;;;9.46;100.00
48790;BME280;41718;51.980;5.734;2022-11-09T21:01:40;101253.75;;;9.40;100.00
48790;BME280;41718;51.980;5.734;2022-11-09T21:06:42;101260.59;;;9.38;100.00
48790;BME280;41718;51.980;5.734;2022-11-09T21:11:45;101267.47;;;9.37;100.00
48790;BME280;41718;51.980;5.734;2022-11-09T21:17:05;101271.50;;;9.27;100.00
48790;BME280;41718;51.980;5.734;2022-11-09T21:22:07;101270.44;;;9.19;100.00
48790;BME280;41718;51.980;5.734;2022-11-09T21:27:09;101272.78;;;9.12;100.00
48790;BME280;41718;51.980;5.734;2022-11-09T21:32:29;101279.78;;;9.16;100.00
48790;BME280;41718;51.980;5.734;2022-11-09T21:37:33;101284.09;;;9.15;100.00
48790;BME280;41718;51.980;5.734;2022-11-09T21:42:36;101281.50;;;9.15;100.00
48790;BME280;41718;51.980;5.734;2022-11-09T21:47:39;101296.00;;;9.10;100.00
48790;BME280;41718;51.980;5.734;2022-11-09T21:52:41;101297.66;;;9.08;100.00
48790;BME280;41718;51.980;5.734;2022-11-09T21:57:43;101291.03;;;9.18;100.00
48790;BME280;41718;51.980;5.734;2022-11-09T22:02:47;101302.06;;;9.12;100.00
48790;BME280;41718;51.980;5.734;2022-11-09T22:07:49;101310.63;;;9.11;100.00
48790;BME280;41718;51.980;5.734;2022-11-09T22:12:51;101311.56;;;9.13;100.00
48790;BME280;41718;51.980;5.734;2022-11-09T22:18:11;101319.91;;;9.05;100.00
48790;BME280;41718;51.980;5.734;2022-11-09T22:23:32;101320.75;;;9.03;100.00
48790;BME280;41718;51.980;5.734;2022-11-09T22:28:34;101331.66;;;8.95;100.00
48790;BME280;41718;51.980;5.734;2022-11-09T22:33:39;101339.53;;;8.99;100.00
48790;BME280;41718;51.980;5.734;2022-11-09T22:38:41;101338.63;;;8.97;100.00
48790;BME280;41718;51.980;5.734;2022-11-09T22:43:45;101334.91;;;8.88;100.00
48790;BME280;41718;51.980;5.734;2022-11-09T22:48:47;101338.41;;;8.90;100.00
48790;BME280;41718;51.980;5.734;2022-11-09T22:53:49;101336.47;;;8.83;100.00
48790;BME280;41718;51.980;5.734;2022-11-09T22:58:51;101339.97;;;8.85;100.00
48790;BME280;41718;51.980;5.734;2022-11-09T23:03:53;101356.81;;;8.73;100.00
48790;BME280;41718;51.980;5.734;2022-11-09T23:08:56;101362.81;;;8.72;100.00
48790;BME280;41718;51.980;5.734;2022-11-09T23:13:57;101370.63;;;8.74;100.00
48790;BME280;41718;51.980;5.734;2022-11-09T23:18:59;101375.53;;;8.66;100.00
48790;BME280;41718;51.980;5.734;2022-11-09T23:24:04;101390.25;;;8.69;100.00
48790;BME280;41718;51.980;5.734;2022-11-09T23:29:06;101399.50;;;8.62;100.00
48790;BME280;41718;51.980;5.734;2022-11-09T23:34:07;101390.72;;;8.57;100.00
48790;BME280;41718;51.980;5.734;2022-11-09T23:39:10;101396.69;;;8.56;100.00
48790;BME280;41718;51.980;5.734;2022-11-09T23:44:12;101393.97;;;8.52;100.00
48790;BME280;41718;51.980;5.734;2022-11-09T23:49:13;101399.56;;;8.38;100.00
48790;BME280;41718;51.980;5.734;2022-11-09T23:54:14;101403.78;;;8.36;100.00
48790;BME280;41718;51.980;5.734;2022-11-09T23:59:16;101415.63;;;8.31;100.00
